sensor_id;sensor_type;location;lat;lon;timestamp;temperature;humidity
22984;DHT22;11658;48.908;9.140;2024-02-15T05:01:20;9.90;99.90
22984;DHT22;11658;48.908;9.140;2024-02-15T05:03:47;9.90;99.90
22984;DHT22;11658;48.908;9.140;2024-02-15T05:06:13;9.90;99.90
22984;DHT22;11658;48.908;9.140;2024-02-15T05:08:39;9.90;99.90
22984;DHT22;11658;48.908;9.140;2024-02-15T05:11:11;9.90;99.90
22984;DHT22;11658;48.908;9.140;2024-02-15T05:13:43;9.90;99.90
22984;DHT22;11658;48.908;9.140;2024-02-15T05:16:10;9.90;99.90
22984;DHT22;11658;48.908;9.140;2024-02-15T05:18:36;9.70;99.90
22984;DHT22;11658;48.908;9.140;2024-02-15T05:21:03;9.90;99.90
22984;DHT22;11658;48.908;9.140;2024-02-15T05:23:30;9.90;99.90
22984;DHT22;11658;48.908;9.140;2024-02-15T05:25:55;9.90;99.90
22984;DHT22;11658;48.908;9.140;2024-02-15T05:28:22;9.90;99.90
22984;DHT22;11658;48.908;9.140;2024-02-15T05:31:14;10.00;99.90
22984;DHT22;11658;48.908;9.140;2024-02-15T05:33:48;9.90;99.90
22984;DHT22;11658;48.908;9.140;2024-02-15T05:36:15;10.00;99.90
22984;DHT22;11658;48.908;9.140;2024-02-15T05:38:41;9.90;99.90
22984;DHT22;11658;48.908;9.140;2024-02-15T05:41:10;9.90;99.90
22984;DHT22;11658;48.908;9.140;2024-02-15T05:43:37;10.00;99.90
22984;DHT22;11658;48.908;9.140;2024-02-15T05:46:04;10.00;99.90
22984;DHT22;11658;48.908;9.140;2024-02-15T05:48:30;10.00;99.90
22984;DHT22;11658;48.908;9.140;2024-02-15T05:50:56;10.00;99.90
22984;DHT22;11658;48.908;9.140;2024-02-15T05:53:23;10.00;99.90
22984;DHT22;11658;48.908;9.140;2024-02-15T05:55:49;10.00;99.90
22984;DHT22;11658;48.908;9.140;2024-02-15T05:58:16;9.90;99.90
22984;DHT22;11658;48.908;9.140;2024-02-15T06:00:42;10.00;99.90
22984;DHT22;11658;48.908;9.140;2024-02-15T06:03:12;10.00;99.90
22984;DHT22;11658;48.908;9.140;2024-02-15T06:05:38;10.00;99.90
22984;DHT22;11658;48.908;9.140;2024-02-15T06:08:05;10.10;99.90
22984;DHT22;11658;48.908;9.140;2024-02-15T06:10:30;10.10;99.90
22984;DHT22;11658;48.908;9.140;2024-02-15T06:12:57;10.10;99.90
22984;DHT22;11658;48.908;9.140;2024-02-15T06:15:24;10.10;99.90
22984;DHT22;11658;48.908;9.140;2024-02-15T06:17:50;10.00;99.90
22984;DHT22;11658;48.908;9.140;2024-02-15T06:20:16;10.00;99.90
22984;DHT22;11658;48.908;9.140;2024-02-15T06:22:48;9.90;99.90
22984;DHT22;11658;48.908;9.140;2024-02-15T06:25:14;9.90;99.90
22984;DHT22;11658;48.908;9.140;2024-02-15T06:27:40;9.90;99.90
22984;DHT22;11658;48.908;9.140;2024-02-15T06:30:09;9.90;99.90
22984;DHT22;11658;48.908;9.140;2024-02-15T06:32:53;10.00;99.90
22984;DHT22;11658;48.908;9.140;2024-02-15T06:35:37;10.00;99.90
22984;DHT22;11658;48.908;9.140;2024-02-15T06:38:23;9.90;99.90
22984;DHT22;11658;48.908;9.140;2024-02-15T06:41:08;9.90;99.90
22984;DHT22;11658;48.908;9.140;2024-02-15T06:43:34;10.00;99.90
22984;DHT22;11658;48.908;9.140;2024-02-15T06:46:00;10.00;99.90
22984;DHT22;11658;48.908;9.140;2024-02-15T06:48:26;10.00;99.90
22984;DHT22;11658;48.908;9.140;2024-02-15T06:50:52;10.00;99.90
22984;DHT22;11658;48.908;9.140;2024-02-15T06:53:18;10.00;99.90
22984;DHT22;11658;48.908;9.140;2024-02-15T06:55:46;10.00;99.90
22984;DHT22;11658;48.908;9.140;2024-02-15T06:58:15;10.00;99.90
22984;DHT22;11658;48.908;9.140;2024-02-15T07:00:41;10.10;99.90
22984;DHT22;11658;48.908;9.140;2024-02-15T07:03:08;10.20;99.90
22984;DHT22;11658;48.908;9.140;2024-02-15T07:05:34;10.40;99.90
22984;DHT22;11658;48.908;9.140;2024-02-15T07:08:01;10.40;99.90
22984;DHT22;11658;48.908;9.140;2024-02-15T07:10:26;10.40;99.90
22984;DHT22;11658;48.908;9.140;2024-02-15T07:12:52;10.10;99.90
22984;DHT22;11658;48.908;9.140;2024-02-15T07:15:17;10.50;99.90
22984;DHT22;11658;48.908;9.140;2024-02-15T07:17:43;10.50;99.90
22984;DHT22;11658;48.908;9.140;2024-02-15T07:20:12;10.60;99.90
22984;DHT22;11658;48.908;9.140;2024-02-15T07:22:39;10.60;99.90
22984;DHT22;11658;48.908;9.140;2024-02-15T07:25:05;10.70;99.90
22984;DHT22;11658;48.908;9.140;2024-02-15T07:27:31;10.70;99.90
22984;DHT22;11658;48.908;9.140;2024-02-15T07:29:58;10.70;99.90
22984;DHT22;11658;48.908;9.140;2024-02-15T07:32:23;10.70;99.90
22984;DHT22;11658;48.908;9.140;2024-02-15T07:34:49;10.80;99.90
22984;DHT22;11658;48.908;9.140;2024-02-15T07:37:15;10.80;99.90
22984;DHT22;11658;48.908;9.140;2024-02-15T07:39:41;10.80;99.90
22984;DHT22;11658;48.908;9.140;2024-02-15T07:42:07;10.80;99.90
22984;DHT22;11658;48.908;9.140;2024-02-15T07:44:38;10.90;99.90
22984;DHT22;11658;48.908;9.140;2024-02-15T07:47:03;11.00;99.90
22984;DHT22;11658;48.908;9.140;2024-02-15T07:49:30;11.10;99.90
22984;DHT22;11658;48.908;9.140;2024-02-15T07:51:56;11.30;99.90
22984;DHT22;11658;48.908;9.140;2024-02-15T07:54:23;11.40;99.90
22984;DHT22;11658;48.908;9.140;2024-02-15T07:56:49;11.60;99.90
22984;DHT22;11658;48.908;9.140;2024-02-15T07:59:15;11.80;99.90
22984;DHT22;11658;48.908;9.140;2024-02-15T08:01:44;11.90;99.90
22984;DHT22;11658;48.908;9.140;2024-02-15T08:04:15;12.00;99.90
22984;DHT22;11658;48.908;9.140;2024-02-15T08:06:41;12.20;99.90
22984;DHT22;11658;48.908;9.140;2024-02-15T08:09:07;12.20;99.90
22984;DHT22;11658;48.908;9.140;2024-02-15T08:11:41;12.40;99.90
22984;DHT22;11658;48.908;9.140;2024-02-15T08:14:07;12.40;99.90
22984;DHT22;11658;48.908;9.140;2024-02-15T08:16:37;12.50;99.90
22984;DHT22;11658;48.908;9.140;2024-02-15T08:19:06;12.40;99.90
22984;DHT22;11658;48.908;9.140;2024-02-15T08:21:33;12.50;99.90
22984;DHT22;11658;48.908;9.140;2024-02-15T08:24:00;12.40;99.90
22984;DHT22;11658;48.908;9.140;2024-02-15T08:26:27;12.40;99.90
22984;DHT22;11658;48.908;9.140;2024-02-15T08:28:55;12.50;99.90
22984;DHT22;11658;48.908;9.140;2024-02-15T08:31:21;12.60;99.90
22984;DHT22;11658;48.908;9.140;2024-02-15T08:33:47;12.70;99.90
22984;DHT22;11658;48.908;9.140;2024-02-15T08:36:12;12.80;99.90
22984;DHT22;11658;48.908;9.140;2024-02-15T08:38:41;12.70;99.90
22984;DHT22;11658;48.908;9.140;2024-02-15T08:41:07;12.70;99.90
22984;DHT22;11658;48.908;9.140;2024-02-15T08:43:34;12.80;99.90
22984;DHT22;11658;48.908;9.140;2024-02-15T08:46:00;12.70;99.90
22984;DHT22;11658;48.908;9.140;2024-02-15T08:48:26;12.70;99.90
22984;DHT22;11658;48.908;9.140;2024-02-15T08:50:52;12.70;99.90
22984;DHT22;11658;48.908;9.140;2024-02-15T08:53:18;12.70;99.90
22984;DHT22;11658;48.908;9.140;2024-02-15T08:55:45;12.90;99.90
22984;DHT22;11658;48.908;9.140;2024-02-15T08:58:11;12.80;99.90
22984;DHT22;11658;48.908;9.140;2024-02-15T09:00:36;12.90;99.90
22984;DHT22;11658;48.908;9.140;2024-02-15T09:03:06;13.00;99.90
22984;DHT22;11658;48.908;9.140;2024-02-15T09:05:32;12.90;99.90
22984;DHT22;11658;48.908;9.140;2024-02-15T09:07:58;12.90;99.90
22984;DHT22;11658;48.908;9.140;2024-02-15T09:10:23;12.90;99.90
22984;DHT22;11658;48.908;9.140;2024-02-15T09:12:49;12.90;99.90
22984;DHT22;11658;48.908;9.140;2024-02-15T09:15:15;12.80;99.90
22984;DHT22;11658;48.908;9.140;2024-02-15T09:17:41;12.90;99.90
22984;DHT22;11658;48.908;9.140;2024-02-15T09:20:10;12.80;99.90
22984;DHT22;11658;48.908;9.140;2024-02-15T09:22:51;12.80;99.90
22984;DHT22;11658;48.908;9.140;2024-02-15T09:25:18;12.90;99.90
22984;DHT22;11658;48.908;9.140;2024-02-15T09:27:44;12.90;99.90
22984;DHT22;11658;48.908;9.140;2024-02-15T09:30:11;13.10;99.90
22984;DHT22;11658;48.908;9.140;2024-02-15T09:32:41;13.10;99.90
22984;DHT22;11658;48.908;9.140;2024-02-15T09:35:08;13.20;99.90
22984;DHT22;11658;48.908;9.140;2024-02-15T09:37:38;13.40;99.90
22984;DHT22;11658;48.908;9.140;2024-02-15T09:40:08;13.60;99.90
22984;DHT22;11658;48.908;9.140;2024-02-15T09:42:35;13.60;99.90
22984;DHT22;11658;48.908;9.140;2024-02-15T09:45:07;13.50;99.90
22984;DHT22;11658;48.908;9.140;2024-02-15T09:47:37;13.60;99.90
22984;DHT22;11658;48.908;9.140;2024-02-15T09:50:16;13.70;99.90
22984;DHT22;11658;48.908;9.140;2024-02-15T09:52:49;13.60;99.90
22984;DHT22;11658;48.908;9.140;2024-02-15T09:55:14;13.50;99.90
22984;DHT22;11658;48.908;9.140;2024-02-15T09:57:45;13.60;99.90
22984;DHT22;11658;48.908;9.140;2024-02-15T10:00:12;13.70;99.90
22984;DHT22;11658;48.908;9.140;2024-02-15T10:02:52;13.70;99.90
22984;DHT22;11658;48.908;9.140;2024-02-15T10:05:21;13.80;99.90
22984;DHT22;11658;48.908;9.140;2024-02-15T10:07:48;13.80;99.90
22984;DHT22;11658;48.908;9.140;2024-02-15T10:10:21;13.90;99.90
22984;DHT22;11658;48.908;9.140;2024-02-15T10:12:47;13.90;99.90
22984;DHT22;11658;48.908;9.140;2024-02-15T10:15:35;13.90;99.90
22984;DHT22;11658;48.908;9.140;2024-02-15T10:18:09;14.10;99.90
22984;DHT22;11658;48.908;9.140;2024-02-15T10:20:39;14.10;99.90
22984;DHT22;11658;48.908;9.140;2024-02-15T10:25:36;14.40;99.90
22984;DHT22;11658;48.908;9.140;2024-02-15T10:28:05;14.40;99.90
22984;DHT22;11658;48.908;9.140;2024-02-15T10:30:39;14.60;99.90
22984;DHT22;11658;48.908;9.140;2024-02-15T10:33:06;14.60;99.90
22984;DHT22;11658;48.908;9.140;2024-02-15T10:35:35;14.80;99.90
22984;DHT22;11658;48.908;9.140;2024-02-15T10:38:09;14.70;99.90
22984;DHT22;11658;48.908;9.140;2024-02-15T10:40:36;14.70;99.90
22984;DHT22;11658;48.908;9.140;2024-02-15T10:43:05;14.60;99.90
22984;DHT22;11658;48.908;9.140;2024-02-15T10:45:32;14.60;99.90
22984;DHT22;11658;48.908;9.140;2024-02-15T10:47:58;14.80;99.90
22984;DHT22;11658;48.908;9.140;2024-02-15T10:50:24;15.00;99.90
22984;DHT22;11658;48.908;9.140;2024-02-15T10:52:58;15.10;99.90
22984;DHT22;11658;48.908;9.140;2024-02-15T10:55:26;15.10;99.90
22984;DHT22;11658;48.908;9.140;2024-02-15T10:57:55;15.20;99.90
22984;DHT22;11658;48.908;9.140;2024-02-15T11:00:26;15.20;99.90
22984;DHT22;11658;48.908;9.140;2024-02-15T11:03:07;15.30;99.90
22984;DHT22;11658;48.908;9.140;2024-02-15T11:05:35;15.30;99.90
22984;DHT22;11658;48.908;9.140;2024-02-15T11:08:05;15.20;99.90
22984;DHT22;11658;48.908;9.140;2024-02-15T11:10:33;15.10;99.90
22984;DHT22;11658;48.908;9.140;2024-02-15T11:13:00;15.30;99.90
22984;DHT22;11658;48.908;9.140;2024-02-15T11:18:11;15.60;99.90
22984;DHT22;11658;48.908;9.140;2024-02-15T11:23:04;15.60;99.90
22984;DHT22;11658;48.908;9.140;2024-02-15T11:25:36;15.60;99.90
22984;DHT22;11658;48.908;9.140;2024-02-15T11:30:55;15.50;99.90
22984;DHT22;11658;48.908;9.140;2024-02-15T11:38:34;15.80;99.90
22984;DHT22;11658;48.908;9.140;2024-02-15T11:41:04;16.00;99.90
22984;DHT22;11658;48.908;9.140;2024-02-15T11:46:13;16.00;99.90
22984;DHT22;11658;48.908;9.140;2024-02-15T11:48:39;16.00;99.90
22984;DHT22;11658;48.908;9.140;2024-02-15T11:51:05;15.90;99.90
22984;DHT22;11658;48.908;9.140;2024-02-15T11:53:32;15.90;99.90
22984;DHT22;11658;48.908;9.140;2024-02-15T11:56:01;15.80;99.90
22984;DHT22;11658;48.908;9.140;2024-02-15T11:58:28;15.80;99.90
22984;DHT22;11658;48.908;9.140;2024-02-15T12:01:27;15.80;99.90
22984;DHT22;11658;48.908;9.140;2024-02-15T12:04:12;16.00;99.90
22984;DHT22;11658;48.908;9.140;2024-02-15T12:06:58;16.10;99.90
22984;DHT22;11658;48.908;9.140;2024-02-15T12:09:42;16.30;99.90
22984;DHT22;11658;48.908;9.140;2024-02-15T12:12:27;16.30;99.90
22984;DHT22;11658;48.908;9.140;2024-02-15T12:15:11;16.50;99.90
22984;DHT22;11658;48.908;9.140;2024-02-15T12:17:55;16.50;99.90
22984;DHT22;11658;48.908;9.140;2024-02-15T12:20:56;16.70;99.90
22984;DHT22;11658;48.908;9.140;2024-02-15T12:23:22;16.60;99.90
22984;DHT22;11658;48.908;9.140;2024-02-15T12:25:53;16.60;99.90
22984;DHT22;11658;48.908;9.140;2024-02-15T12:28:19;16.80;99.90
22984;DHT22;11658;48.908;9.140;2024-02-15T12:30:45;17.00;99.90
22984;DHT22;11658;48.908;9.140;2024-02-15T12:33:12;17.00;99.90
22984;DHT22;11658;48.908;9.140;2024-02-15T12:35:38;17.10;99.90
22984;DHT22;11658;48.908;9.140;2024-02-15T12:38:04;17.00;99.90
22984;DHT22;11658;48.908;9.140;2024-02-15T12:40:35;16.80;99.90
22984;DHT22;11658;48.908;9.140;2024-02-15T12:43:05;16.90;99.90
22984;DHT22;11658;48.908;9.140;2024-02-15T12:45:32;17.10;99.90
22984;DHT22;11658;48.908;9.140;2024-02-15T12:47:58;17.10;99.90
22984;DHT22;11658;48.908;9.140;2024-02-15T12:50:27;17.10;99.90
22984;DHT22;11658;48.908;9.140;2024-02-15T12:52:54;17.00;99.90
22984;DHT22;11658;48.908;9.140;2024-02-15T12:55:22;16.90;99.90
22984;DHT22;11658;48.908;9.140;2024-02-15T12:57:53;16.90;99.90
22984;DHT22;11658;48.908;9.140;2024-02-15T13:00:25;17.00;99.90
22984;DHT22;11658;48.908;9.140;2024-02-15T13:02:54;17.00;99.90
22984;DHT22;11658;48.908;9.140;2024-02-15T13:05:21;17.10;99.90
22984;DHT22;11658;48.908;9.140;2024-02-15T13:07:51;17.20;99.90
22984;DHT22;11658;48.908;9.140;2024-02-15T13:10:17;17.10;99.90
22984;DHT22;11658;48.908;9.140;2024-02-15T13:12:44;17.00;99.90
22984;DHT22;11658;48.908;9.140;2024-02-15T13:15:11;17.10;99.90
22984;DHT22;11658;48.908;9.140;2024-02-15T13:17:43;17.20;99.90
22984;DHT22;11658;48.908;9.140;2024-02-15T13:20:10;17.20;99.90
22984;DHT22;11658;48.908;9.140;2024-02-15T13:22:39;17.30;99.90
22984;DHT22;11658;48.908;9.140;2024-02-15T13:25:06;17.30;99.90
22984;DHT22;11658;48.908;9.140;2024-02-15T13:27:33;17.30;99.90
22984;DHT22;11658;48.908;9.140;2024-02-15T13:29:59;17.30;99.90
22984;DHT22;11658;48.908;9.140;2024-02-15T13:32:25;17.30;99.90
22984;DHT22;11658;48.908;9.140;2024-02-15T13:34:51;17.10;99.90
22984;DHT22;11658;48.908;9.140;2024-02-15T13:37:20;17.30;99.90
22984;DHT22;11658;48.908;9.140;2024-02-15T13:39:49;17.20;99.90
22984;DHT22;11658;48.908;9.140;2024-02-15T13:42:15;17.20;99.90
22984;DHT22;11658;48.908;9.140;2024-02-15T13:44:45;17.30;99.90
22984;DHT22;11658;48.908;9.140;2024-02-15T13:47:12;17.30;99.90
22984;DHT22;11658;48.908;9.140;2024-02-15T13:49:38;17.60;99.90
22984;DHT22;11658;48.908;9.140;2024-02-15T13:52:06;17.60;99.90
22984;DHT22;11658;48.908;9.140;2024-02-15T13:54:32;17.70;99.90
22984;DHT22;11658;48.908;9.140;2024-02-15T13:57:00;17.60;99.90
22984;DHT22;11658;48.908;9.140;2024-02-15T13:59:27;17.70;99.90
22984;DHT22;11658;48.908;9.140;2024-02-15T14:01:54;17.70;99.90
22984;DHT22;11658;48.908;9.140;2024-02-15T14:04:19;17.60;99.90
22984;DHT22;11658;48.908;9.140;2024-02-15T14:06:45;17.40;99.90
22984;DHT22;11658;48.908;9.140;2024-02-15T14:09:11;17.40;99.90
22984;DHT22;11658;48.908;9.140;2024-02-15T14:11:38;17.40;99.90
22984;DHT22;11658;48.908;9.140;2024-02-15T14:14:05;17.40;99.90
22984;DHT22;11658;48.908;9.140;2024-02-15T14:16:31;17.40;99.90
22984;DHT22;11658;48.908;9.140;2024-02-15T14:18:57;17.40;99.90
22984;DHT22;11658;48.908;9.140;2024-02-15T14:21:23;17.30;99.90
22984;DHT22;11658;48.908;9.140;2024-02-15T14:23:48;17.10;99.90
22984;DHT22;11658;48.908;9.140;2024-02-15T14:26:15;17.00;99.90
22984;DHT22;11658;48.908;9.140;2024-02-15T14:28:42;16.90;99.90
22984;DHT22;11658;48.908;9.140;2024-02-15T14:31:10;16.90;99.90
22984;DHT22;11658;48.908;9.140;2024-02-15T14:33:54;16.90;99.90
22984;DHT22;11658;48.908;9.140;2024-02-15T14:36:20;16.90;99.90
22984;DHT22;11658;48.908;9.140;2024-02-15T14:38:45;16.90;99.90
22984;DHT22;11658;48.908;9.140;2024-02-15T14:41:12;17.00;99.90
22984;DHT22;11658;48.908;9.140;2024-02-15T14:43:38;17.00;99.90
22984;DHT22;11658;48.908;9.140;2024-02-15T14:46:04;16.90;99.90
22984;DHT22;11658;48.908;9.140;2024-02-15T14:48:34;16.90;99.90
22984;DHT22;11658;48.908;9.140;2024-02-15T14:51:00;16.90;99.90
22984;DHT22;11658;48.908;9.140;2024-02-15T14:53:26;16.90;99.90
22984;DHT22;11658;48.908;9.140;2024-02-15T14:55:53;16.90;99.90
22984;DHT22;11658;48.908;9.140;2024-02-15T14:58:21;16.90;99.90
22984;DHT22;11658;48.908;9.140;2024-02-15T15:00:47;16.90;99.90
22984;DHT22;11658;48.908;9.140;2024-02-15T15:03:15;16.90;99.90
22984;DHT22;11658;48.908;9.140;2024-02-15T15:05:42;16.90;99.90
22984;DHT22;11658;48.908;9.140;2024-02-15T15:08:26;16.90;99.90
22984;DHT22;11658;48.908;9.140;2024-02-15T15:11:10;17.00;99.90
22984;DHT22;11658;48.908;9.140;2024-02-15T15:13:54;17.00;99.90
22984;DHT22;11658;48.908;9.140;2024-02-15T15:16:20;17.00;99.90
22984;DHT22;11658;48.908;9.140;2024-02-15T15:18:50;17.10;99.90
22984;DHT22;11658;48.908;9.140;2024-02-15T15:21:18;17.10;99.90
22984;DHT22;11658;48.908;9.140;2024-02-15T15:23:44;17.10;99.90
22984;DHT22;11658;48.908;9.140;2024-02-15T15:26:10;17.00;99.90
22984;DHT22;11658;48.908;9.140;2024-02-15T15:28:40;17.00;99.90
22984;DHT22;11658;48.908;9.140;2024-02-15T15:31:06;16.80;99.90
22984;DHT22;11658;48.908;9.140;2024-02-15T15:33:32;16.60;99.90
22984;DHT22;11658;48.908;9.140;2024-02-15T15:36:01;16.50;99.90
22984;DHT22;11658;48.908;9.140;2024-02-15T15:38:29;16.60;99.90
22984;DHT22;11658;48.908;9.140;2024-02-15T15:40:54;16.60;99.90
22984;DHT22;11658;48.908;9.140;2024-02-15T15:43:20;16.50;99.90
22984;DHT22;11658;48.908;9.140;2024-02-15T15:45:46;16.50;99.90
22984;DHT22;11658;48.908;9.140;2024-02-15T15:48:13;16.50;99.90
22984;DHT22;11658;48.908;9.140;2024-02-15T15:50:39;16.50;99.90
22984;DHT22;11658;48.908;9.140;2024-02-15T15:53:05;16.40;99.90
22984;DHT22;11658;48.908;9.140;2024-02-15T15:55:32;16.40;99.90
22984;DHT22;11658;48.908;9.140;2024-02-15T15:57:57;16.30;99.90
22984;DHT22;11658;48.908;9.140;2024-02-15T16:00:23;16.20;99.90
22984;DHT22;11658;48.908;9.140;2024-02-15T16:02:49;16.10;99.90
22984;DHT22;11658;48.908;9.140;2024-02-15T16:05:17;16.00;99.90
22984;DHT22;11658;48.908;9.140;2024-02-15T16:07:47;16.00;99.90
22984;DHT22;11658;48.908;9.140;2024-02-15T16:10:12;16.00;99.90
22984;DHT22;11658;48.908;9.140;2024-02-15T16:12:39;15.90;99.90
22984;DHT22;11658;48.908;9.140;2024-02-15T16:15:09;15.90;99.90
22984;DHT22;11658;48.908;9.140;2024-02-15T16:17:38;15.80;99.90
22984;DHT22;11658;48.908;9.140;2024-02-15T16:20:06;15.70;99.90
22984;DHT22;11658;48.908;9.140;2024-02-15T16:22:34;15.60;99.90
22984;DHT22;11658;48.908;9.140;2024-02-15T16:25:02;15.50;99.90
22984;DHT22;11658;48.908;9.140;2024-02-15T16:27:40;15.50;99.90
22984;DHT22;11658;48.908;9.140;2024-02-15T16:30:07;15.40;99.90
22984;DHT22;11658;48.908;9.140;2024-02-15T16:32:35;15.30;99.90
22984;DHT22;11658;48.908;9.140;2024-02-15T16:35:01;15.20;99.90
22984;DHT22;11658;48.908;9.140;2024-02-15T16:37:29;15.10;99.90
22984;DHT22;11658;48.908;9.140;2024-02-15T16:39:57;15.00;99.90
22984;DHT22;11658;48.908;9.140;2024-02-15T16:42:22;15.00;99.90
22984;DHT22;11658;48.908;9.140;2024-02-15T16:44:48;14.90;99.90
22984;DHT22;11658;48.908;9.140;2024-02-15T16:47:14;14.80;99.90
22984;DHT22;11658;48.908;9.140;2024-02-15T16:49:42;14.70;99.90
22984;DHT22;11658;48.908;9.140;2024-02-15T16:52:08;14.60;99.90
22984;DHT22;11658;48.908;9.140;2024-02-15T16:54:34;14.60;99.90
22984;DHT22;11658;48.908;9.140;2024-02-15T16:57:00;14.50;99.90
22984;DHT22;11658;48.908;9.140;2024-02-15T16:59:25;14.60;99.90
22984;DHT22;11658;48.908;9.140;2024-02-15T17:01:52;14.60;99.90
22984;DHT22;11658;48.908;9.140;2024-02-15T17:04:18;14.50;99.90
22984;DHT22;11658;48.908;9.140;2024-02-15T17:06:44;14.50;99.90
22984;DHT22;11658;48.908;9.140;2024-02-15T17:09:10;14.50;99.90
22984;DHT22;11658;48.908;9.140;2024-02-15T17:11:36;14.50;99.90
22984;DHT22;11658;48.908;9.140;2024-02-15T17:14:05;14.40;99.90
22984;DHT22;11658;48.908;9.140;2024-02-15T17:16:31;14.40;99.90
22984;DHT22;11658;48.908;9.140;2024-02-15T17:18:56;14.50;99.90
22984;DHT22;11658;48.908;9.140;2024-02-15T17:21:22;14.40;99.90
22984;DHT22;11658;48.908;9.140;2024-02-15T17:23:49;14.40;99.90
22984;DHT22;11658;48.908;9.140;2024-02-15T17:26:15;14.20;99.90
22984;DHT22;11658;48.908;9.140;2024-02-15T17:28:40;14.30;99.90
22984;DHT22;11658;48.908;9.140;2024-02-15T17:31:06;14.30;99.90
22984;DHT22;11658;48.908;9.140;2024-02-15T17:33:45;14.30;99.90
22984;DHT22;11658;48.908;9.140;2024-02-15T17:36:11;14.30;99.90
22984;DHT22;11658;48.908;9.140;2024-02-15T17:38:37;14.30;99.90
22984;DHT22;11658;48.908;9.140;2024-02-15T17:41:04;14.30;99.90
22984;DHT22;11658;48.908;9.140;2024-02-15T17:43:30;14.30;99.90
22984;DHT22;11658;48.908;9.140;2024-02-15T17:45:57;14.30;99.90
22984;DHT22;11658;48.908;9.140;2024-02-15T17:48:24;14.30;99.90
22984;DHT22;11658;48.908;9.140;2024-02-15T17:50:52;14.20;99.90
22984;DHT22;11658;48.908;9.140;2024-02-15T17:53:18;14.20;99.90
22984;DHT22;11658;48.908;9.140;2024-02-15T17:55:46;14.20;99.90
22984;DHT22;11658;48.908;9.140;2024-02-15T17:58:18;14.20;99.90
22984;DHT22;11658;48.908;9.140;2024-02-15T18:00:45;14.20;99.90
22984;DHT22;11658;48.908;9.140;2024-02-15T18:03:11;14.20;99.90
22984;DHT22;11658;48.908;9.140;2024-02-15T18:05:37;14.10;99.90
22984;DHT22;11658;48.908;9.140;2024-02-15T18:08:04;14.10;99.90
22984;DHT22;11658;48.908;9.140;2024-02-15T18:10:30;14.00;99.90
22984;DHT22;11658;48.908;9.140;2024-02-15T18:12:56;14.00;99.90
22984;DHT22;11658;48.908;9.140;2024-02-15T18:15:21;14.00;99.90
22984;DHT22;11658;48.908;9.140;2024-02-15T18:17:54;13.90;99.90
22984;DHT22;11658;48.908;9.140;2024-02-15T18:20:20;13.90;99.90
22984;DHT22;11658;48.908;9.140;2024-02-15T18:22:48;13.90;99.90
22984;DHT22;11658;48.908;9.140;2024-02-15T18:25:15;13.90;99.90
22984;DHT22;11658;48.908;9.140;2024-02-15T18:27:41;13.90;99.90
22984;DHT22;11658;48.908;9.140;2024-02-15T18:30:08;13.90;99.90
22984;DHT22;11658;48.908;9.140;2024-02-15T18:32:38;13.80;99.90
22984;DHT22;11658;48.908;9.140;2024-02-15T18:35:06;13.80;99.90
22984;DHT22;11658;48.908;9.140;2024-02-15T18:37:33;13.70;99.90
22984;DHT22;11658;48.908;9.140;2024-02-15T18:40:00;13.60;99.90
22984;DHT22;11658;48.908;9.140;2024-02-15T18:42:26;13.60;99.90
22984;DHT22;11658;48.908;9.140;2024-02-15T18:44:52;13.60;99.90
22984;DHT22;11658;48.908;9.140;2024-02-15T18:47:17;13.50;99.90
22984;DHT22;11658;48.908;9.140;2024-02-15T18:49:43;13.50;99.90
22984;DHT22;11658;48.908;9.140;2024-02-15T18:52:09;13.50;99.90
22984;DHT22;11658;48.908;9.140;2024-02-15T18:54:38;13.40;99.90
22984;DHT22;11658;48.908;9.140;2024-02-15T18:57:06;13.40;99.90
22984;DHT22;11658;48.908;9.140;2024-02-15T18:59:34;13.40;99.90
22984;DHT22;11658;48.908;9.140;2024-02-15T19:02:02;13.40;99.90
22984;DHT22;11658;48.908;9.140;2024-02-15T19:04:27;13.40;99.90
22984;DHT22;11658;48.908;9.140;2024-02-15T19:06:53;13.30;99.90
22984;DHT22;11658;48.908;9.140;2024-02-15T19:09:18;13.30;99.90
22984;DHT22;11658;48.908;9.140;2024-02-15T19:11:45;13.20;99.90
22984;DHT22;11658;48.908;9.140;2024-02-15T19:14:14;13.20;99.90
22984;DHT22;11658;48.908;9.140;2024-02-15T19:16:42;13.10;99.90
22984;DHT22;11658;48.908;9.140;2024-02-15T19:19:07;13.00;99.90
22984;DHT22;11658;48.908;9.140;2024-02-15T19:21:36;13.00;99.90
22984;DHT22;11658;48.908;9.140;2024-02-15T19:24:03;13.00;99.90
22984;DHT22;11658;48.908;9.140;2024-02-15T19:26:29;13.00;99.90
22984;DHT22;11658;48.908;9.140;2024-02-15T19:28:55;13.00;99.90
22984;DHT22;11658;48.908;9.140;2024-02-15T19:31:20;13.00;99.90
22984;DHT22;11658;48.908;9.140;2024-02-15T19:33:46;13.00;99.90
22984;DHT22;11658;48.908;9.140;2024-02-15T19:36:14;13.00;99.90
22984;DHT22;11658;48.908;9.140;2024-02-15T19:38:40;12.90;99.90
22984;DHT22;11658;48.908;9.140;2024-02-15T19:41:06;13.00;99.90
22984;DHT22;11658;48.908;9.140;2024-02-15T19:43:31;12.90;99.90
22984;DHT22;11658;48.908;9.140;2024-02-15T19:45:57;12.80;99.90
22984;DHT22;11658;48.908;9.140;2024-02-15T19:48:23;12.80;99.90
22984;DHT22;11658;48.908;9.140;2024-02-15T19:50:49;12.80;99.90
22984;DHT22;11658;48.908;9.140;2024-02-15T19:53:14;12.70;99.90
22984;DHT22;11658;48.908;9.140;2024-02-15T19:55:40;12.70;99.90
22984;DHT22;11658;48.908;9.140;2024-02-15T19:58:06;12.70;99.90
22984;DHT22;11658;48.908;9.140;2024-02-15T20:00:31;12.70;99.90
22984;DHT22;11658;48.908;9.140;2024-02-15T20:02:57;12.70;99.90
22984;DHT22;11658;48.908;9.140;2024-02-15T20:05:23;12.70;99.90
22984;DHT22;11658;48.908;9.140;2024-02-15T20:07:49;12.70;99.90
22984;DHT22;11658;48.908;9.140;2024-02-15T20:10:15;12.60;99.90
22984;DHT22;11658;48.908;9.140;2024-02-15T20:12:40;12.60;99.90
22984;DHT22;11658;48.908;9.140;2024-02-15T20:15:06;12.60;99.90
22984;DHT22;11658;48.908;9.140;2024-02-15T20:17:36;12.60;99.90
22984;DHT22;11658;48.908;9.140;2024-02-15T20:20:02;12.60;99.90
22984;DHT22;11658;48.908;9.140;2024-02-15T20:22:30;12.60;99.90
22984;DHT22;11658;48.908;9.140;2024-02-15T20:24:55;12.60;99.90
22984;DHT22;11658;48.908;9.140;2024-02-15T20:27:22;12.60;99.90
22984;DHT22;11658;48.908;9.140;2024-02-15T20:29:49;12.60;99.90
22984;DHT22;11658;48.908;9.140;2024-02-15T20:32:16;12.60;99.90
22984;DHT22;11658;48.908;9.140;2024-02-15T20:34:44;12.60;99.90
22984;DHT22;11658;48.908;9.140;2024-02-15T20:37:11;12.60;99.90
22984;DHT22;11658;48.908;9.140;2024-02-15T20:39:37;12.60;99.90
22984;DHT22;11658;48.908;9.140;2024-02-15T20:42:03;12.70;99.90
22984;DHT22;11658;48.908;9.140;2024-02-15T20:44:29;12.70;99.90
22984;DHT22;11658;48.908;9.140;2024-02-15T20:46:54;12.70;99.90
22984;DHT22;11658;48.908;9.140;2024-02-15T20:49:20;12.70;99.90
22984;DHT22;11658;48.908;9.140;2024-02-15T20:51:45;12.60;99.90
22984;DHT22;11658;48.908;9.140;2024-02-15T20:54:11;12.70;99.90
22984;DHT22;11658;48.908;9.140;2024-02-15T20:56:38;12.80;99.90